createdAt,value
2019-04-30T00:01:48.570Z,94089.88
2019-04-30T00:04:15.900Z,94087.02
2019-04-30T00:06:45.384Z,94085.66
2019-04-30T00:09:18.917Z,94089.32
2019-04-30T00:11:46.099Z,94083.86
2019-04-30T00:14:15.244Z,94089.35
2019-04-30T00:16:45.128Z,94096.14
2019-04-30T00:19:15.756Z,94095.63
2019-04-30T00:21:50.097Z,94094.06
2019-04-30T00:24:15.748Z,94093.03
2019-04-30T00:26:44.993Z,94092.55
2019-04-30T00:29:19.158Z,94094.39
2019-04-30T00:31:44.672Z,94094.67
2019-04-30T00:34:15.172Z,94095.45
2019-04-30T00:36:43.542Z,94092.82
2019-04-30T00:39:13.215Z,94087.63
2019-04-30T00:41:45.940Z,94085.82
2019-04-30T00:44:11.570Z,94085.55
2019-04-30T00:46:40.054Z,94083.22
2019-04-30T00:49:11.187Z,94081.66
2019-04-30T00:51:38.164Z,94074.39
2019-04-30T00:54:06.360Z,94069.19
2019-04-30T00:56:35.546Z,94062.16
2019-04-30T00:59:08.236Z,94058.23
2019-04-30T01:01:39.056Z,94059.30
2019-04-30T01:04:09.935Z,94054.09
2019-04-30T01:06:38.110Z,94055.40
2019-04-30T01:09:08.629Z,94057.52
2019-04-30T01:11:39.783Z,94056.19
2019-04-30T01:14:06.666Z,94056.72
2019-04-30T01:16:34.852Z,94049.19
2019-04-30T01:19:05.661Z,94045.28
2019-04-30T01:21:32.946Z,94044.25
2019-04-30T01:24:01.142Z,94043.75
2019-04-30T01:26:31.027Z,94046.61
2019-04-30T01:29:02.068Z,94053.64
2019-04-30T01:31:36.938Z,94043.75
2019-04-30T01:34:00.261Z,94034.89
2019-04-30T01:36:29.374Z,94038.02
2019-04-30T01:38:59.294Z,94041.16
2019-04-30T01:41:31.315Z,94040.91
2019-04-30T01:43:58.485Z,94044.27
2019-04-30T01:46:26.799Z,94044.83
2019-04-30T01:48:55.001Z,94045.09
2019-04-30T01:51:23.522Z,94040.16
2019-04-30T01:53:51.749Z,94034.70
2019-04-30T01:56:21.913Z,94031.55
2019-04-30T01:58:51.738Z,94024.02
2019-04-30T02:01:24.098Z,94026.86
2019-04-30T02:03:52.581Z,94019.80
2019-04-30T02:06:20.778Z,94015.93
2019-04-30T02:08:49.369Z,94019.83
2019-04-30T02:11:18.978Z,94026.35
2019-04-30T02:13:49.194Z,94031.25
2019-04-30T02:16:18.755Z,94036.22
2019-04-30T02:18:49.459Z,94032.05
2019-04-30T02:21:19.524Z,94036.98
2019-04-30T02:23:49.303Z,94030.75
2019-04-30T02:26:18.774Z,94036.73
2019-04-30T02:28:49.386Z,94028.16
2019-04-30T02:31:22.327Z,94022.45
2019-04-30T02:33:50.293Z,94018.26
2019-04-30T02:36:32.311Z,94018.00
2019-04-30T02:39:02.632Z,94014.09
2019-04-30T02:41:31.041Z,94016.70
2019-04-30T02:43:59.810Z,94012.82
2019-04-30T02:46:31.997Z,94016.22
2019-04-30T02:48:59.799Z,94018.84
2019-04-30T02:51:29.954Z,94022.73
2019-04-30T02:54:12.930Z,94018.28
2019-04-30T02:56:42.767Z,94014.41
2019-04-30T02:59:11.208Z,94018.56
2019-04-30T03:01:40.248Z,94014.42
2019-04-30T03:04:09.860Z,94012.11
2019-04-30T03:06:40.188Z,94018.33
2019-04-30T03:09:10.344Z,94008.44
2019-04-30T03:11:40.586Z,94004.03
2019-04-30T03:14:10.245Z,93995.19
2019-04-30T03:16:43.470Z,93994.66
2019-04-30T03:19:25.280Z,93998.83
2019-04-30T03:22:00.170Z,93990.23
2019-04-30T03:24:29.534Z,93992.33
2019-04-30T03:26:59.457Z,93993.11
2019-04-30T03:29:30.257Z,93989.97
2019-04-30T03:32:02.066Z,93991.29
2019-04-30T03:34:31.829Z,93989.48
2019-04-30T03:37:01.685Z,93990.77
2019-04-30T03:39:29.733Z,93989.23
2019-04-30T03:41:59.676Z,93984.23
2019-04-30T03:44:31.563Z,93988.90
2019-04-30T03:46:59.310Z,93988.37
2019-04-30T03:49:29.840Z,93982.40
2019-04-30T03:51:59.806Z,93991.77
2019-04-30T03:54:29.251Z,93989.94
2019-04-30T03:57:00.625Z,93992.53
2019-04-30T03:59:30.106Z,93991.50
2019-04-30T04:02:06.233Z,93993.56
2019-04-30T04:04:39.666Z,93989.69
2019-04-30T04:07:10.209Z,93996.20
2019-04-30T04:09:59.824Z,93993.59
2019-04-30T04:12:30.253Z,93992.78
2019-04-30T04:15:03.266Z,93994.05
2019-04-30T04:17:31.293Z,93991.72
2019-04-30T04:19:59.866Z,93988.34
2019-04-30T04:22:30.602Z,93992.78
2019-04-30T04:25:00.054Z,93991.19
2019-04-30T04:27:30.077Z,93995.02
2019-04-30T04:30:01.095Z,93989.76
2019-04-30T04:32:30.885Z,93991.04
2019-04-30T04:35:00.170Z,93989.47
2019-04-30T04:37:30.105Z,93993.11
2019-04-30T04:39:59.561Z,93990.75
2019-04-30T04:42:30.003Z,93988.68
2019-04-30T04:44:59.486Z,93993.08
2019-04-30T04:47:30.871Z,93994.94
2019-04-30T04:50:00.653Z,93991.30
2019-04-30T04:52:31.616Z,93988.44
2019-04-30T04:55:00.451Z,93991.03
2019-04-30T04:57:30.508Z,93981.95
2019-04-30T05:00:03.489Z,93990.75
2019-04-30T05:02:46.328Z,93987.14
2019-04-30T05:05:14.508Z,93984.25
2019-04-30T05:07:42.746Z,93990.99
2019-04-30T05:10:11.889Z,93984.76
2019-04-30T05:12:40.412Z,93985.27
2019-04-30T05:15:09.546Z,93982.42
2019-04-30T05:17:39.765Z,93980.33
2019-04-30T05:20:09.994Z,93971.74
2019-04-30T05:22:39.021Z,93970.95
2019-04-30T05:25:08.802Z,93976.97
2019-04-30T05:27:39.077Z,93994.94
2019-04-30T05:30:09.729Z,93990.45
2019-04-30T05:32:39.086Z,93997.22
2019-04-30T05:35:09.562Z,93989.73
2019-04-30T05:37:38.470Z,93996.78
2019-04-30T05:40:09.117Z,93993.41
2019-04-30T05:42:38.518Z,93993.48
2019-04-30T05:45:09.370Z,93992.16
2019-04-30T05:47:38.874Z,93996.61
2019-04-30T05:50:08.977Z,94001.56
2019-04-30T05:52:39.501Z,94012.48
2019-04-30T05:55:08.566Z,94020.53
2019-04-30T05:57:36.983Z,94020.55
2019-04-30T06:00:09.308Z,94019.83
2019-04-30T06:02:37.145Z,94024.30
2019-04-30T06:05:06.276Z,94026.67
2019-04-30T06:07:34.760Z,94025.66
2019-04-30T06:10:04.885Z,94031.15
2019-04-30T06:12:52.821Z,94038.42
2019-04-30T06:15:29.108Z,94041.30
2019-04-30T06:18:01.801Z,94050.70
2019-04-30T06:20:28.783Z,94049.71
2019-04-30T06:22:57.134Z,94052.08
2019-04-30T06:25:32.393Z,94053.38
2019-04-30T06:27:55.311Z,94050.27
2019-04-30T06:30:23.946Z,94054.95
2019-04-30T06:32:52.125Z,94054.44
2019-04-30T06:35:20.621Z,94056.83
2019-04-30T06:37:49.106Z,94049.83
2019-04-30T06:40:19.631Z,94054.45
2019-04-30T06:42:49.338Z,94051.83
2019-04-30T06:45:19.173Z,94057.52
2019-04-30T06:47:48.937Z,94053.61
2019-04-30T06:50:19.211Z,94051.78
2019-04-30T06:52:56.215Z,94052.83
2019-04-30T06:55:19.109Z,94058.75
2019-04-30T06:57:47.040Z,94050.45
2019-04-30T07:00:15.239Z,94038.44
2019-04-30T07:02:43.423Z,94048.86
2019-04-30T07:05:12.035Z,94056.40
2019-04-30T07:07:41.897Z,94054.26
2019-04-30T07:10:17.008Z,94050.36
2019-04-30T07:12:49.162Z,94053.55
2019-04-30T07:15:19.529Z,94051.27
2019-04-30T07:17:49.155Z,94054.45
2019-04-30T07:20:19.147Z,94052.45
2019-04-30T07:22:52.543Z,94046.75
2019-04-30T07:25:19.519Z,94039.50
2019-04-30T07:27:50.565Z,94040.04
2019-04-30T07:30:19.224Z,94049.41
2019-04-30T07:32:48.769Z,94045.27
2019-04-30T07:35:19.442Z,94055.52
2019-04-30T07:37:49.522Z,94052.88
2019-04-30T07:40:19.047Z,94043.75
2019-04-30T07:42:49.309Z,94047.27
2019-04-30T07:45:19.426Z,94053.28
2019-04-30T07:47:49.507Z,94051.22
2019-04-30T07:50:20.797Z,94058.56
2019-04-30T07:53:01.979Z,94065.28
2019-04-30T07:55:19.583Z,94073.89
2019-04-30T07:57:50.557Z,94071.76
2019-04-30T08:00:19.413Z,94075.36
2019-04-30T08:02:50.453Z,94082.14
2019-04-30T08:05:20.427Z,94077.98
2019-04-30T08:07:49.102Z,94079.22
2019-04-30T08:10:18.765Z,94081.27
2019-04-30T08:12:49.990Z,94084.97
2019-04-30T08:15:19.193Z,94082.59
2019-04-30T08:18:01.661Z,94078.46
2019-04-30T08:20:19.491Z,94071.45
2019-04-30T08:22:49.396Z,94073.84
2019-04-30T08:25:19.933Z,94067.39
2019-04-30T08:27:49.268Z,94072.63
2019-04-30T08:30:26.045Z,94076.06
2019-04-30T08:32:49.983Z,94076.64
2019-04-30T08:35:19.705Z,94080.06
2019-04-30T08:37:49.659Z,94084.53
2019-04-30T08:40:20.959Z,94078.28
2019-04-30T08:42:49.690Z,94080.38
2019-04-30T08:45:19.698Z,94088.48
2019-04-30T08:47:49.354Z,94084.59
2019-04-30T08:50:19.595Z,94082.48
2019-04-30T08:52:49.752Z,94078.84
2019-04-30T08:55:19.747Z,94085.87
2019-04-30T08:57:49.859Z,94084.07
2019-04-30T09:00:19.539Z,94078.59
2019-04-30T09:02:49.187Z,94079.93
2019-04-30T09:05:19.439Z,94081.47
2019-04-30T09:07:48.676Z,94086.19
2019-04-30T09:10:19.254Z,94086.72
2019-04-30T09:12:49.616Z,94081.23
2019-04-30T09:15:18.836Z,94090.34
2019-04-30T09:18:00.308Z,94092.70
2019-04-30T09:20:19.303Z,94095.83
2019-04-30T09:22:47.325Z,94090.64
2019-04-30T09:25:15.961Z,94090.91
2019-04-30T09:27:44.134Z,94085.94
2019-04-30T09:30:12.311Z,94089.59
2019-04-30T09:32:40.494Z,94083.60
2019-04-30T09:35:09.562Z,94085.42
2019-04-30T09:37:39.414Z,94085.42
2019-04-30T09:40:16.131Z,94088.30
2019-04-30T09:42:39.078Z,94077.81
2019-04-30T09:45:08.806Z,94076.28
2019-04-30T09:47:37.047Z,94071.05
2019-04-30T09:50:06.248Z,94074.16
2019-04-30T09:52:36.112Z,94070.50
2019-04-30T09:55:06.188Z,94079.14
2019-04-30T09:57:34.683Z,94077.80
2019-04-30T10:00:03.979Z,94079.34
2019-04-30T10:02:32.438Z,94081.71
2019-04-30T10:05:01.026Z,94074.92
2019-04-30T10:07:29.811Z,94082.49
2019-04-30T10:09:59.090Z,94082.20
2019-04-30T10:12:29.414Z,94083.02
2019-04-30T10:14:59.255Z,94082.25
2019-04-30T10:17:32.235Z,94079.89
2019-04-30T10:20:00.411Z,94078.33
2019-04-30T10:22:28.597Z,94080.41
2019-04-30T10:24:56.780Z,94077.28
2019-04-30T10:27:25.684Z,94073.63
2019-04-30T10:29:54.131Z,94073.63
2019-04-30T10:32:22.313Z,94075.48
2019-04-30T10:34:50.793Z,94074.67
2019-04-30T10:37:19.275Z,94072.86
2019-04-30T10:39:48.994Z,94066.83
2019-04-30T10:42:17.430Z,94072.86
2019-04-30T10:44:45.610Z,94072.36
2019-04-30T10:47:14.426Z,94074.67
2019-04-30T10:49:42.616Z,94072.61
2019-04-30T10:52:10.794Z,94073.91
2019-04-30T10:54:39.109Z,94078.34
2019-04-30T10:57:08.690Z,94067.39
2019-04-30T10:59:37.167Z,94069.95
2019-04-30T11:02:05.431Z,94074.41
2019-04-30T11:04:33.902Z,94071.23
2019-04-30T11:07:02.085Z,94068.11
2019-04-30T11:09:31.172Z,94066.53
2019-04-30T11:12:02.697Z,94064.70
2019-04-30T11:14:30.118Z,94069.38
2019-04-30T11:16:59.892Z,94070.41
2019-04-30T14:16:47.228Z,94024.11
2019-04-30T14:22:57.581Z,94029.27
2019-04-30T14:28:55.015Z,94021.09
2019-04-30T14:31:23.202Z,94022.66
2019-04-30T14:33:51.379Z,94019.13
2019-04-30T14:36:19.571Z,94013.65
2019-04-30T14:38:48.856Z,94022.41
2019-04-30T14:41:17.808Z,94026.63
2019-04-30T14:43:50.489Z,94023.02
2019-04-30T14:46:22.561Z,94017.44
2019-04-30T14:48:53.550Z,94024.26
2019-04-30T14:51:22.453Z,94018.59
2019-04-30T14:53:52.270Z,94021.41
2019-04-30T14:56:24.817Z,94023.82
2019-04-30T14:59:00.144Z,94019.44
2019-04-30T15:01:32.615Z,94020.93
2019-04-30T15:04:00.788Z,94026.94
2019-04-30T15:06:29.279Z,94028.83
2019-04-30T15:08:59.133Z,94019.73
2019-04-30T15:11:28.874Z,94025.75
2019-04-30T15:13:59.062Z,94021.16
2019-04-30T15:16:26.981Z,94020.30
2019-04-30T15:18:55.165Z,94019.61
2019-04-30T15:21:23.658Z,94017.84
2019-04-30T15:23:58.599Z,94018.63
2019-04-30T15:26:25.126Z,94013.92
2019-04-30T15:28:53.600Z,94012.58
2019-04-30T15:31:22.081Z,94009.33
2019-04-30T15:34:02.268Z,94010.39
2019-04-30T15:36:22.109Z,94015.80
2019-04-30T15:38:57.679Z,94014.03
2019-04-30T15:41:26.146Z,94015.88
2019-04-30T15:43:54.729Z,94013.66
2019-04-30T15:46:23.626Z,94018.39
2019-04-30T15:48:51.814Z,94017.91
2019-04-30T15:51:19.994Z,94011.61
2019-04-30T15:53:48.585Z,94011.89
2019-04-30T15:56:16.761Z,94007.11
2019-04-30T15:58:49.318Z,94004.63
2019-04-30T16:01:19.176Z,94003.85
2019-04-30T16:03:54.443Z,94005.13
2019-04-30T16:06:22.945Z,94001.98
2019-04-30T16:08:58.402Z,93997.16
2019-04-30T16:11:37.258Z,93995.70
2019-04-30T16:14:22.797Z,93995.03
2019-04-30T16:16:52.617Z,93995.59
2019-04-30T16:19:20.807Z,93997.66
2019-04-30T16:21:48.985Z,93995.11
2019-04-30T16:24:18.729Z,93998.18
2019-04-30T16:26:50.611Z,94000.78
2019-04-30T16:29:16.965Z,93996.38
2019-04-30T16:31:45.444Z,93993.91
2019-04-30T16:34:13.929Z,93994.18
2019-04-30T16:36:42.414Z,93994.25
2019-04-30T16:39:10.621Z,93992.18
2019-04-30T16:41:40.747Z,93988.90
2019-04-30T16:44:09.184Z,93985.52
2019-04-30T16:46:39.481Z,93993.55
2019-04-30T16:49:09.985Z,93989.92
2019-04-30T16:51:38.594Z,93988.80
2019-04-30T16:54:08.646Z,93990.48
2019-04-30T16:56:38.656Z,93984.75
2019-04-30T16:59:08.685Z,93988.06
2019-04-30T17:01:36.860Z,93987.41
2019-04-30T17:04:25.624Z,93990.82
2019-04-30T17:06:55.759Z,93994.48
2019-04-30T17:09:31.038Z,93989.47
2019-04-30T17:12:00.857Z,93987.45
2019-04-30T17:14:30.805Z,93986.65
2019-04-30T17:16:59.823Z,93994.24
2019-04-30T17:19:29.231Z,93991.47
2019-04-30T17:21:57.518Z,93986.03
2019-04-30T17:24:25.955Z,93988.91
2019-04-30T17:26:54.446Z,93988.16
2019-04-30T17:29:22.639Z,93986.56
2019-04-30T17:31:50.816Z,93991.33
2019-04-30T17:34:19.274Z,93986.14
2019-04-30T17:36:49.449Z,93987.73
2019-04-30T17:39:19.009Z,93987.98
2019-04-30T17:41:47.553Z,93990.34
2019-04-30T17:44:15.735Z,93993.24
2019-04-30T17:46:43.907Z,93992.77
2019-04-30T17:49:12.093Z,93993.30
2019-04-30T17:51:40.276Z,94003.78
2019-04-30T17:54:13.475Z,94004.63
2019-04-30T17:56:42.601Z,94012.50
2019-04-30T17:59:11.264Z,94016.73
2019-04-30T18:01:41.095Z,94021.20
2019-04-30T18:04:09.267Z,94021.20
2019-04-30T18:06:37.453Z,94020.20
2019-04-30T18:09:10.745Z,94014.45
2019-04-30T18:11:39.619Z,94013.96
2019-04-30T18:14:08.824Z,94017.67
2019-04-30T18:16:38.687Z,94012.78
2019-04-30T18:19:11.599Z,94020.67
2019-04-30T18:21:48.578Z,94021.20
2019-04-30T18:24:19.529Z,94027.52
2019-04-30T18:27:01.628Z,94026.78
2019-04-30T18:29:29.798Z,94031.53
2019-04-30T18:31:59.843Z,94035.73
2019-04-30T18:34:29.204Z,94028.45
2019-04-30T18:36:59.327Z,94029.52
2019-04-30T18:39:28.885Z,94033.19
2019-04-30T18:41:57.288Z,94030.84
2019-04-30T18:44:25.461Z,94030.60
2019-04-30T18:46:53.987Z,94043.18
2019-04-30T18:49:22.174Z,94038.98
2019-04-30T18:51:50.355Z,94036.42
2019-04-30T18:54:20.896Z,94041.12
2019-04-30T18:56:49.005Z,94036.70
2019-04-30T18:59:19.509Z,94040.37
2019-04-30T19:01:47.437Z,94035.70
2019-04-30T19:04:15.615Z,94042.50
2019-04-30T19:06:43.801Z,94035.72
2019-04-30T19:09:19.674Z,94047.23
2019-04-30T19:11:52.817Z,94054.81
2019-04-30T19:14:25.478Z,94054.56
2019-04-30T19:17:01.038Z,94056.38
2019-04-30T19:19:43.367Z,94058.48
2019-04-30T19:22:11.552Z,94056.39
2019-04-30T19:24:52.714Z,94059.55
2019-04-30T19:27:09.641Z,94060.86
2019-04-30T19:29:38.125Z,94059.30
2019-04-30T19:32:06.322Z,94059.81
2019-04-30T19:34:34.875Z,94057.45
2019-04-30T19:37:03.482Z,94060.87
2019-04-30T19:39:32.497Z,94067.66
2019-04-30T19:42:01.018Z,94064.53
2019-04-30T19:44:29.834Z,94070.27
2019-04-30T19:46:58.591Z,94073.39
2019-04-30T19:49:26.801Z,94074.44
2019-04-30T19:52:07.597Z,94076.26
2019-04-30T19:54:24.886Z,94079.66
2019-04-30T19:56:53.292Z,94078.36
2019-04-30T19:59:21.840Z,94073.94
2019-04-30T20:01:50.195Z,94080.72
2019-04-30T20:04:18.648Z,94074.73
2019-04-30T20:06:48.763Z,94072.11
2019-04-30T20:09:19.278Z,94077.86
2019-04-30T20:11:49.307Z,94085.68
2019-04-30T20:14:18.677Z,94073.16
2019-04-30T20:16:48.667Z,94078.10
2019-04-30T20:19:16.946Z,94080.70
2019-04-30T20:21:50.740Z,94082.52
2019-04-30T20:24:15.368Z,94084.07
2019-04-30T20:26:43.544Z,94081.94
2019-04-30T20:29:12.020Z,94076.70
2019-04-30T20:31:40.499Z,94075.59
2019-04-30T20:34:09.254Z,94075.55
2019-04-30T20:36:38.885Z,94085.39
2019-04-30T20:39:09.109Z,94080.14
2019-04-30T20:41:37.281Z,94076.45
2019-04-30T20:44:05.464Z,94087.80
2019-04-30T20:46:35.325Z,94082.00
2019-04-30T20:49:03.867Z,94078.78
2019-04-30T20:51:32.040Z,94080.19
2019-04-30T20:54:00.220Z,94084.27
2019-04-30T20:56:29.170Z,94082.36
2019-04-30T20:59:02.347Z,94077.33
2019-04-30T21:01:29.419Z,94078.31
2019-04-30T21:03:57.342Z,94078.47
2019-04-30T21:06:25.752Z,94072.91
2019-04-30T21:08:53.941Z,94070.70
2019-04-30T21:11:22.459Z,94074.25
2019-04-30T21:13:50.936Z,94076.23
2019-04-30T21:16:19.421Z,94068.61
2019-04-30T21:18:47.897Z,94068.75
2019-04-30T21:21:18.610Z,94064.80
2019-04-30T21:23:46.813Z,94072.75
2019-04-30T21:26:14.993Z,94067.95
2019-04-30T21:28:43.177Z,94068.12
2019-04-30T21:31:31.104Z,94065.72
2019-04-30T21:34:09.704Z,94058.33
2019-04-30T21:36:39.555Z,94064.22
2019-04-30T21:39:09.051Z,94059.06
2019-04-30T21:41:39.448Z,94055.75
2019-04-30T21:44:07.233Z,94059.30
2019-04-30T21:46:37.102Z,94054.30
2019-04-30T21:49:05.636Z,94053.27
2019-04-30T21:51:33.811Z,94061.04
2019-04-30T21:54:02.005Z,94055.05
2019-04-30T21:56:30.458Z,94053.98
2019-04-30T21:58:58.935Z,94062.25
2019-04-30T22:01:27.107Z,94064.05
2019-04-30T22:03:55.590Z,94059.58
2019-04-30T22:06:23.769Z,94055.30
2019-04-30T22:08:51.952Z,94050.94
2019-04-30T22:11:20.121Z,94055.08
2019-04-30T22:13:49.416Z,94049.86
2019-04-30T22:16:20.072Z,94046.99
2019-04-30T22:18:48.020Z,94052.17
2019-04-30T22:21:16.205Z,94049.77
2019-04-30T22:23:44.377Z,94042.22
2019-04-30T22:26:12.698Z,94053.66
2019-04-30T22:28:41.248Z,94048.56
2019-04-30T22:31:09.536Z,94047.05
2019-04-30T22:33:39.206Z,94050.44
2019-04-30T22:36:10.924Z,94047.58
2019-04-30T22:38:40.810Z,94044.45
2019-04-30T22:41:08.995Z,94047.13
2019-04-30T22:43:37.167Z,94044.89
2019-04-30T22:46:06.994Z,94045.38
2019-04-30T22:48:35.434Z,94034.75
2019-04-30T22:51:03.622Z,94041.49
2019-04-30T22:53:31.797Z,94036.89
2019-04-30T22:56:00.268Z,94036.66
2019-04-30T22:58:28.748Z,94031.52
2019-04-30T23:01:01.530Z,94028.92
2019-04-30T23:03:31.361Z,94026.83
2019-04-30T23:05:59.529Z,94018.91
2019-04-30T23:08:27.700Z,94022.58
2019-04-30T23:10:56.177Z,94016.94
2019-04-30T23:13:24.351Z,94023.72
2019-04-30T23:15:54.450Z,94029.48
2019-04-30T23:18:22.624Z,94027.98
2019-04-30T23:20:51.178Z,94025.70
2019-04-30T23:23:19.353Z,94026.27
2019-04-30T23:25:47.540Z,94021.92
2019-04-30T23:28:15.710Z,94021.16
2019-04-30T23:30:43.919Z,94014.15
2019-04-30T23:33:12.408Z,94011.85
2019-04-30T23:35:40.591Z,94016.81
2019-04-30T23:38:08.767Z,94005.70
2019-04-30T23:40:51.094Z,94004.95
2019-04-30T23:43:19.751Z,93997.97
2019-04-30T23:45:48.094Z,93989.22
2019-04-30T23:48:16.273Z,93985.36
2019-04-30T23:50:44.445Z,93989.59
2019-04-30T23:53:12.629Z,93986.02
2019-04-30T23:55:40.803Z,93985.62
2019-04-30T23:58:08.985Z,93984.84
